sensor_id;sensor_type;location;lat;lon;timestamp;pressure;altitude;pressure_sealevel;temperature;humidity
11515;BME280;5814;41.936;25.556;2023-02-12T00:02:05;100285.50;;;-2.84;86.80
11515;BME280;5814;41.936;25.556;2023-02-12T00:04:33;100286.83;;;-2.83;86.79
11515;BME280;5814;41.936;25.556;2023-02-12T00:07:00;100281.13;;;-3.06;86.89
11515;BME280;5814;41.936;25.556;2023-02-12T00:09:27;100289.93;;;-3.18;86.70
11515;BME280;5814;41.936;25.556;2023-02-12T00:11:54;100291.72;;;-3.34;87.11
11515;BME280;5814;41.936;25.556;2023-02-12T00:14:21;100294.34;;;-3.41;87.35
11515;BME280;5814;41.936;25.556;2023-02-12T00:16:48;100290.55;;;-3.23;87.54
11515;BME280;5814;41.936;25.556;2023-02-12T00:19:15;100299.30;;;-3.17;87.82
11515;BME280;5814;41.936;25.556;2023-02-12T00:21:43;100290.69;;;-3.02;87.70
11515;BME280;5814;41.936;25.556;2023-02-12T00:24:10;100291.61;;;-2.90;87.47
11515;BME280;5814;41.936;25.556;2023-02-12T00:26:37;100282.50;;;-2.94;87.45
11515;BME280;5814;41.936;25.556;2023-02-12T00:29:04;100281.86;;;-2.90;87.40
11515;BME280;5814;41.936;25.556;2023-02-12T00:31:31;100281.25;;;-2.65;87.14
11515;BME280;5814;41.936;25.556;2023-02-12T00:33:58;100284.38;;;-2.61;86.74
11515;BME280;5814;41.936;25.556;2023-02-12T00:36:27;100273.71;;;-2.53;86.32
11515;BME280;5814;41.936;25.556;2023-02-12T00:38:53;100272.61;;;-2.39;85.52
11515;BME280;5814;41.936;25.556;2023-02-12T00:41:20;100274.75;;;-2.38;85.05
11515;BME280;5814;41.936;25.556;2023-02-12T00:43:47;100275.84;;;-2.42;84.98
11515;BME280;5814;41.936;25.556;2023-02-12T00:46:14;100268.88;;;-2.46;84.67
11515;BME280;5814;41.936;25.556;2023-02-12T00:48:41;100261.80;;;-2.62;84.53
11515;BME280;5814;41.936;25.556;2023-02-12T00:51:09;100266.97;;;-2.51;84.62
11515;BME280;5814;41.936;25.556;2023-02-12T00:53:36;100263.69;;;-2.48;84.18
11515;BME280;5814;41.936;25.556;2023-02-12T00:56:03;100261.39;;;-2.51;83.79
11515;BME280;5814;41.936;25.556;2023-02-12T00:58:30;100251.58;;;-2.42;83.21
11515;BME280;5814;41.936;25.556;2023-02-12T01:00:57;100253.54;;;-2.37;83.11
11515;BME280;5814;41.936;25.556;2023-02-12T01:03:25;100252.61;;;-2.28;82.66
11515;BME280;5814;41.936;25.556;2023-02-12T01:05:52;100249.28;;;-2.26;82.34
11515;BME280;5814;41.936;25.556;2023-02-12T01:08:19;100244.89;;;-2.19;82.50
11515;BME280;5814;41.936;25.556;2023-02-12T01:10:52;100245.09;;;-2.15;82.11
11515;BME280;5814;41.936;25.556;2023-02-12T01:13:14;100238.50;;;-2.09;81.99
11515;BME280;5814;41.936;25.556;2023-02-12T01:15:41;100241.91;;;-2.09;81.85
11515;BME280;5814;41.936;25.556;2023-02-12T01:18:08;100240.80;;;-2.05;82.38
11515;BME280;5814;41.936;25.556;2023-02-12T01:20:35;100236.19;;;-2.34;82.99
11515;BME280;5814;41.936;25.556;2023-02-12T01:23:02;100231.96;;;-2.33;83.74
11515;BME280;5814;41.936;25.556;2023-02-12T01:25:29;100214.50;;;-2.32;83.83
11515;BME280;5814;41.936;25.556;2023-02-12T01:27:56;100222.32;;;-2.08;83.79
11515;BME280;5814;41.936;25.556;2023-02-12T01:30:24;100214.03;;;-2.34;84.00
11515;BME280;5814;41.936;25.556;2023-02-12T01:32:51;100214.87;;;-2.14;84.16
11515;BME280;5814;41.936;25.556;2023-02-12T01:35:18;100217.26;;;-2.08;84.18
11515;BME280;5814;41.936;25.556;2023-02-12T01:37:45;100219.83;;;-1.96;83.67
11515;BME280;5814;41.936;25.556;2023-02-12T01:40:14;100216.72;;;-2.00;82.45
11515;BME280;5814;41.936;25.556;2023-02-12T01:42:41;100207.38;;;-1.77;81.20
11515;BME280;5814;41.936;25.556;2023-02-12T01:45:37;100204.11;;;-1.63;80.37
11515;BME280;5814;41.936;25.556;2023-02-12T01:47:54;100193.09;;;-1.61;80.01
11515;BME280;5814;41.936;25.556;2023-02-12T01:50:21;100199.30;;;-1.66;81.25
11515;BME280;5814;41.936;25.556;2023-02-12T01:52:50;100193.28;;;-1.56;81.82
11515;BME280;5814;41.936;25.556;2023-02-12T01:55:16;100189.16;;;-1.64;82.03
11515;BME280;5814;41.936;25.556;2023-02-12T01:57:44;100199.66;;;-1.68;82.37
11515;BME280;5814;41.936;25.556;2023-02-12T02:00:13;100186.58;;;-1.65;82.53
11515;BME280;5814;41.936;25.556;2023-02-12T02:02:41;100203.13;;;-1.88;82.78
11515;BME280;5814;41.936;25.556;2023-02-12T02:05:07;100197.00;;;-1.92;83.04
11515;BME280;5814;41.936;25.556;2023-02-12T02:07:35;100198.65;;;-1.94;83.34
11515;BME280;5814;41.936;25.556;2023-02-12T02:10:02;100200.29;;;-1.95;83.51
11515;BME280;5814;41.936;25.556;2023-02-12T02:12:29;100191.43;;;-2.14;83.82
11515;BME280;5814;41.936;25.556;2023-02-12T02:15:02;100202.80;;;-2.18;84.64
11515;BME280;5814;41.936;25.556;2023-02-12T02:17:57;100202.96;;;-2.23;84.95
11515;BME280;5814;41.936;25.556;2023-02-12T02:26:21;100207.30;;;-2.11;85.29
11515;BME280;5814;41.936;25.556;2023-02-12T02:28:56;100207.45;;;-1.97;85.37
11515;BME280;5814;41.936;25.556;2023-02-12T02:31:33;100208.52;;;-1.81;85.24
11515;BME280;5814;41.936;25.556;2023-02-12T02:34:02;100212.63;;;-1.85;85.17
11515;BME280;5814;41.936;25.556;2023-02-12T02:36:35;100211.38;;;-1.74;85.16
11515;BME280;5814;41.936;25.556;2023-02-12T02:39:00;100205.35;;;-1.64;84.84
11515;BME280;5814;41.936;25.556;2023-02-12T02:41:30;100214.85;;;-1.72;84.78
11515;BME280;5814;41.936;25.556;2023-02-12T02:43:55;100215.00;;;-1.68;84.68
11515;BME280;5814;41.936;25.556;2023-02-12T02:48:57;100209.86;;;-1.90;85.09
11515;BME280;5814;41.936;25.556;2023-02-12T02:51:25;100214.55;;;-2.01;85.83
11515;BME280;5814;41.936;25.556;2023-02-12T02:54:00;100213.02;;;-2.07;85.81
11515;BME280;5814;41.936;25.556;2023-02-12T02:56:24;100213.12;;;-2.15;86.13
11515;BME280;5814;41.936;25.556;2023-02-12T02:58:54;100202.16;;;-2.12;86.57
11515;BME280;5814;41.936;25.556;2023-02-12T03:01:31;100216.61;;;-2.03;86.62
11515;BME280;5814;41.936;25.556;2023-02-12T03:04:11;100222.80;;;-2.38;87.34
11515;BME280;5814;41.936;25.556;2023-02-12T03:06:42;100224.88;;;-2.19;87.95
11515;BME280;5814;41.936;25.556;2023-02-12T03:09:12;100225.34;;;-2.18;88.18
11515;BME280;5814;41.936;25.556;2023-02-12T03:11:37;100220.30;;;-2.16;88.39
11515;BME280;5814;41.936;25.556;2023-02-12T03:14:25;100224.55;;;-2.27;88.70
11515;BME280;5814;41.936;25.556;2023-02-12T03:17:07;100212.53;;;-2.19;89.00
11515;BME280;5814;41.936;25.556;2023-02-12T03:19:35;100219.55;;;-2.24;89.24
11515;BME280;5814;41.936;25.556;2023-02-12T03:22:09;100221.24;;;-2.25;89.40
11515;BME280;5814;41.936;25.556;2023-02-12T03:24:43;100219.84;;;-2.17;89.24
11515;BME280;5814;41.936;25.556;2023-02-12T03:27:15;100216.01;;;-2.17;89.28
11515;BME280;5814;41.936;25.556;2023-02-12T03:29:40;100218.76;;;-2.13;89.21
11515;BME280;5814;41.936;25.556;2023-02-12T03:32:21;100214.11;;;-2.22;89.36
11515;BME280;5814;41.936;25.556;2023-02-12T03:34:52;100211.05;;;-2.34;89.93
11515;BME280;5814;41.936;25.556;2023-02-12T03:37:34;100205.52;;;-2.23;90.01
11515;BME280;5814;41.936;25.556;2023-02-12T03:40:15;100205.73;;;-2.18;90.13
11515;BME280;5814;41.936;25.556;2023-02-12T03:42:53;100196.14;;;-2.24;89.99
11515;BME280;5814;41.936;25.556;2023-02-12T03:45:38;100200.12;;;-2.41;90.50
11515;BME280;5814;41.936;25.556;2023-02-12T03:50:53;100201.64;;;-2.25;90.50
11515;BME280;5814;41.936;25.556;2023-02-12T03:53:18;100196.69;;;-2.20;90.24
11515;BME280;5814;41.936;25.556;2023-02-12T03:55:46;100187.94;;;-2.16;90.03
11515;BME280;5814;41.936;25.556;2023-02-12T03:58:13;100187.37;;;-2.20;90.06
11515;BME280;5814;41.936;25.556;2023-02-12T04:00:40;100181.22;;;-2.24;90.25
11515;BME280;5814;41.936;25.556;2023-02-12T04:03:07;100184.88;;;-2.39;90.57
11515;BME280;5814;41.936;25.556;2023-02-12T04:05:34;100188.93;;;-2.44;90.85
11515;BME280;5814;41.936;25.556;2023-02-12T04:08:01;100194.28;;;-2.38;90.61
11515;BME280;5814;41.936;25.556;2023-02-12T04:10:35;100180.73;;;-2.25;90.30
11515;BME280;5814;41.936;25.556;2023-02-12T04:13:08;100181.24;;;-2.34;89.96
11515;BME280;5814;41.936;25.556;2023-02-12T04:15:35;100178.70;;;-2.23;89.65
11515;BME280;5814;41.936;25.556;2023-02-12T04:18:06;100179.34;;;-2.28;89.37
11515;BME280;5814;41.936;25.556;2023-02-12T04:24:33;100169.30;;;-2.24;88.87
11515;BME280;5814;41.936;25.556;2023-02-12T04:26:13;100174.81;;;-2.14;88.49
11515;BME280;5814;41.936;25.556;2023-02-12T04:31:32;100174.45;;;-2.12;87.63
11515;BME280;5814;41.936;25.556;2023-02-12T04:34:07;100184.62;;;-1.92;87.07
11515;BME280;5814;41.936;25.556;2023-02-12T04:36:33;100182.45;;;-2.04;86.92
11515;BME280;5814;41.936;25.556;2023-02-12T04:39:00;100180.75;;;-1.94;86.58
11515;BME280;5814;41.936;25.556;2023-02-12T04:41:26;100176.62;;;-1.90;86.58
11515;BME280;5814;41.936;25.556;2023-02-12T04:43:53;100182.21;;;-1.78;86.30
11515;BME280;5814;41.936;25.556;2023-02-12T04:46:21;100188.17;;;-1.78;85.77
11515;BME280;5814;41.936;25.556;2023-02-12T04:48:51;100191.90;;;-1.81;85.10
11515;BME280;5814;41.936;25.556;2023-02-12T04:51:16;100201.14;;;-1.74;84.60
11515;BME280;5814;41.936;25.556;2023-02-12T04:53:44;100210.79;;;-1.67;84.54
11515;BME280;5814;41.936;25.556;2023-02-12T04:56:11;100205.19;;;-1.58;84.41
11515;BME280;5814;41.936;25.556;2023-02-12T04:58:38;100205.23;;;-1.56;84.35
11515;BME280;5814;41.936;25.556;2023-02-12T05:01:05;100209.45;;;-1.35;84.28
11515;BME280;5814;41.936;25.556;2023-02-12T05:03:32;100211.92;;;-1.27;83.91
11515;BME280;5814;41.936;25.556;2023-02-12T05:06:03;100217.01;;;-1.39;83.76
11515;BME280;5814;41.936;25.556;2023-02-12T05:08:29;100211.71;;;-1.43;84.19
11515;BME280;5814;41.936;25.556;2023-02-12T05:10:57;100218.38;;;-1.47;84.46
11515;BME280;5814;41.936;25.556;2023-02-12T05:13:24;100218.91;;;-1.66;85.04
11515;BME280;5814;41.936;25.556;2023-02-12T05:15:51;100218.69;;;-1.51;85.40
11515;BME280;5814;41.936;25.556;2023-02-12T05:18:18;100233.84;;;-1.66;85.74
11515;BME280;5814;41.936;25.556;2023-02-12T05:20:45;100231.73;;;-1.55;85.99
11515;BME280;5814;41.936;25.556;2023-02-12T05:23:12;100227.73;;;-1.48;85.94
11515;BME280;5814;41.936;25.556;2023-02-12T05:25:40;100227.92;;;-1.20;85.38
11515;BME280;5814;41.936;25.556;2023-02-12T05:28:07;100227.52;;;-1.20;84.97
11515;BME280;5814;41.936;25.556;2023-02-12T05:30:34;100235.62;;;-1.32;85.28
11515;BME280;5814;41.936;25.556;2023-02-12T05:33:01;100237.81;;;-1.30;85.52
11515;BME280;5814;41.936;25.556;2023-02-12T05:35:28;100239.00;;;-1.87;86.47
11515;BME280;5814;41.936;25.556;2023-02-12T05:37:55;100245.81;;;-1.76;86.81
11515;BME280;5814;41.936;25.556;2023-02-12T05:40:23;100259.61;;;-1.93;87.45
11515;BME280;5814;41.936;25.556;2023-02-12T05:42:50;100262.93;;;-1.85;87.93
11515;BME280;5814;41.936;25.556;2023-02-12T05:45:17;100262.91;;;-1.85;88.15
11515;BME280;5814;41.936;25.556;2023-02-12T05:47:44;100263.06;;;-1.71;88.20
11515;BME280;5814;41.936;25.556;2023-02-12T05:50:12;100266.55;;;-1.48;87.99
11515;BME280;5814;41.936;25.556;2023-02-12T05:52:39;100272.91;;;-1.16;87.44
11515;BME280;5814;41.936;25.556;2023-02-12T05:55:07;100265.55;;;-1.41;87.03
11515;BME280;5814;41.936;25.556;2023-02-12T05:57:34;100275.52;;;-1.25;86.95
11515;BME280;5814;41.936;25.556;2023-02-12T06:00:01;100266.03;;;-1.05;86.81
11515;BME280;5814;41.936;25.556;2023-02-12T06:02:28;100273.72;;;-1.05;86.52
11515;BME280;5814;41.936;25.556;2023-02-12T06:04:56;100277.27;;;-1.03;85.96
11515;BME280;5814;41.936;25.556;2023-02-12T06:07:23;100274.91;;;-0.86;86.00
11515;BME280;5814;41.936;25.556;2023-02-12T06:09:50;100282.81;;;-0.79;86.10
11515;BME280;5814;41.936;25.556;2023-02-12T06:12:17;100281.60;;;-0.89;86.25
11515;BME280;5814;41.936;25.556;2023-02-12T06:14:44;100289.83;;;-0.74;86.15
11515;BME280;5814;41.936;25.556;2023-02-12T06:17:12;100282.61;;;-0.85;86.09
11515;BME280;5814;41.936;25.556;2023-02-12T06:19:39;100295.54;;;-1.15;86.29
11515;BME280;5814;41.936;25.556;2023-02-12T06:22:06;100290.25;;;-0.98;86.51
11515;BME280;5814;41.936;25.556;2023-02-12T06:24:33;100288.25;;;-0.71;86.23
11515;BME280;5814;41.936;25.556;2023-02-12T06:27:00;100283.85;;;-0.51;85.86
11515;BME280;5814;41.936;25.556;2023-02-12T06:29:27;100287.70;;;-0.39;85.36
11515;BME280;5814;41.936;25.556;2023-02-12T06:31:54;100286.63;;;-0.33;85.10
11515;BME280;5814;41.936;25.556;2023-02-12T06:34:22;100289.72;;;-0.18;84.54
11515;BME280;5814;41.936;25.556;2023-02-12T06:36:49;100290.27;;;-0.51;84.73
11515;BME280;5814;41.936;25.556;2023-02-12T06:39:16;100296.03;;;-0.21;84.56
11515;BME280;5814;41.936;25.556;2023-02-12T06:41:43;100286.02;;;-0.11;84.27
11515;BME280;5814;41.936;25.556;2023-02-12T06:44:10;100292.20;;;0.30;83.75
11515;BME280;5814;41.936;25.556;2023-02-12T06:46:37;100281.30;;;0.37;83.04
11515;BME280;5814;41.936;25.556;2023-02-12T06:49:05;100290.00;;;0.41;83.04
11515;BME280;5814;41.936;25.556;2023-02-12T06:51:32;100303.83;;;0.59;82.67
11515;BME280;5814;41.936;25.556;2023-02-12T06:53:59;100313.21;;;-0.06;83.17
11515;BME280;5814;41.936;25.556;2023-02-12T06:56:26;100318.52;;;-0.14;83.73
11515;BME280;5814;41.936;25.556;2023-02-12T06:58:54;100323.21;;;-0.26;84.45
11515;BME280;5814;41.936;25.556;2023-02-12T07:01:22;100320.68;;;-0.25;85.05
11515;BME280;5814;41.936;25.556;2023-02-12T07:03:50;100325.14;;;0.17;85.05
11515;BME280;5814;41.936;25.556;2023-02-12T07:06:16;100315.91;;;0.49;84.45
11515;BME280;5814;41.936;25.556;2023-02-12T07:08:44;100309.78;;;0.85;83.45
11515;BME280;5814;41.936;25.556;2023-02-12T07:11:11;100306.80;;;0.99;82.38
11515;BME280;5814;41.936;25.556;2023-02-12T07:13:39;100310.59;;;1.26;81.91
11515;BME280;5814;41.936;25.556;2023-02-12T07:16:07;100320.14;;;1.45;80.67
11515;BME280;5814;41.936;25.556;2023-02-12T07:18:33;100313.56;;;1.55;79.87
11515;BME280;5814;41.936;25.556;2023-02-12T07:21:00;100317.97;;;1.89;79.34
11515;BME280;5814;41.936;25.556;2023-02-12T07:23:27;100308.51;;;2.22;78.71
11515;BME280;5814;41.936;25.556;2023-02-12T07:25:56;100308.90;;;2.54;77.86
11515;BME280;5814;41.936;25.556;2023-02-12T07:28:22;100312.91;;;2.43;76.89
11515;BME280;5814;41.936;25.556;2023-02-12T07:30:50;100307.34;;;2.61;76.64
11515;BME280;5814;41.936;25.556;2023-02-12T07:33:17;100313.28;;;2.76;76.53
11515;BME280;5814;41.936;25.556;2023-02-12T07:35:44;100306.51;;;2.63;76.21
11515;BME280;5814;41.936;25.556;2023-02-12T07:38:11;100308.92;;;2.73;75.55
11515;BME280;5814;41.936;25.556;2023-02-12T07:40:38;100307.58;;;2.71;75.24
11515;BME280;5814;41.936;25.556;2023-02-12T07:43:05;100308.64;;;2.61;75.47
11515;BME280;5814;41.936;25.556;2023-02-12T07:45:33;100292.35;;;2.82;75.44
11515;BME280;5814;41.936;25.556;2023-02-12T07:48:00;100300.99;;;3.02;74.57
11515;BME280;5814;41.936;25.556;2023-02-12T07:50:27;100303.19;;;3.04;74.31
11515;BME280;5814;41.936;25.556;2023-02-12T07:52:54;100302.56;;;2.96;74.38
11515;BME280;5814;41.936;25.556;2023-02-12T07:55:21;100312.00;;;2.77;74.72
11515;BME280;5814;41.936;25.556;2023-02-12T07:57:48;100308.72;;;2.66;75.12
11515;BME280;5814;41.936;25.556;2023-02-12T08:00:17;100312.38;;;2.93;75.45
11515;BME280;5814;41.936;25.556;2023-02-12T08:02:49;100320.15;;;2.41;76.31
11515;BME280;5814;41.936;25.556;2023-02-12T08:05:11;100317.34;;;2.66;76.43
11515;BME280;5814;41.936;25.556;2023-02-12T08:07:38;100326.69;;;2.63;76.36
11515;BME280;5814;41.936;25.556;2023-02-12T08:10:07;100322.33;;;2.60;76.50
11515;BME280;5814;41.936;25.556;2023-02-12T08:12:34;100321.99;;;2.82;76.82
11515;BME280;5814;41.936;25.556;2023-02-12T08:15:01;100320.59;;;2.95;76.07
11515;BME280;5814;41.936;25.556;2023-02-12T08:17:29;100316.45;;;3.22;75.75
11515;BME280;5814;41.936;25.556;2023-02-12T08:19:56;100317.53;;;3.32;75.26
11515;BME280;5814;41.936;25.556;2023-02-12T08:22:23;100324.00;;;3.75;74.50
11515;BME280;5814;41.936;25.556;2023-02-12T08:24:50;100325.81;;;3.80;73.83
11515;BME280;5814;41.936;25.556;2023-02-12T08:27:17;100322.14;;;3.68;73.27
11515;BME280;5814;41.936;25.556;2023-02-12T08:29:44;100329.48;;;3.48;73.35
11515;BME280;5814;41.936;25.556;2023-02-12T08:34:32;100345.59;;;4.01;71.65
11515;BME280;5814;41.936;25.556;2023-02-12T08:36:59;100335.27;;;3.57;71.99
11515;BME280;5814;41.936;25.556;2023-02-12T08:39:27;100344.84;;;3.85;72.78
11515;BME280;5814;41.936;25.556;2023-02-12T08:41:54;100344.98;;;3.92;72.09
11515;BME280;5814;41.936;25.556;2023-02-12T08:44:21;100348.58;;;4.23;72.14
11515;BME280;5814;41.936;25.556;2023-02-12T08:46:49;100347.91;;;4.58;71.50
11515;BME280;5814;41.936;25.556;2023-02-12T08:49:17;100351.83;;;4.60;70.61
11515;BME280;5814;41.936;25.556;2023-02-12T08:51:45;100355.08;;;4.76;70.33
11515;BME280;5814;41.936;25.556;2023-02-12T08:54:12;100365.11;;;4.83;68.89
11515;BME280;5814;41.936;25.556;2023-02-12T08:56:38;100362.99;;;4.86;66.19
11515;BME280;5814;41.936;25.556;2023-02-12T08:59:06;100360.05;;;5.19;66.05
11515;BME280;5814;41.936;25.556;2023-02-12T09:01:33;100356.34;;;5.31;66.82
11515;BME280;5814;41.936;25.556;2023-02-12T09:04:00;100371.52;;;5.68;66.06
11515;BME280;5814;41.936;25.556;2023-02-12T09:06:27;100368.69;;;5.49;65.36
11515;BME280;5814;41.936;25.556;2023-02-12T09:08:54;100373.00;;;5.50;65.38
11515;BME280;5814;41.936;25.556;2023-02-12T09:11:22;100361.77;;;5.83;64.57
11515;BME280;5814;41.936;25.556;2023-02-12T09:13:49;100381.66;;;5.52;64.29
11515;BME280;5814;41.936;25.556;2023-02-12T09:16:16;100370.86;;;5.86;63.09
11515;BME280;5814;41.936;25.556;2023-02-12T09:18:43;100369.30;;;6.36;62.10
11515;BME280;5814;41.936;25.556;2023-02-12T09:21:12;100380.64;;;5.73;64.37
11515;BME280;5814;41.936;25.556;2023-02-12T09:23:38;100368.50;;;6.43;63.63
11515;BME280;5814;41.936;25.556;2023-02-12T09:26:06;100362.11;;;7.06;61.83
11515;BME280;5814;41.936;25.556;2023-02-12T09:28:32;100356.63;;;7.27;61.09
11515;BME280;5814;41.936;25.556;2023-02-12T09:31:07;100361.60;;;7.64;58.49
11515;BME280;5814;41.936;25.556;2023-02-12T09:33:34;100360.53;;;7.29;55.88
11515;BME280;5814;41.936;25.556;2023-02-12T09:36:02;100364.83;;;7.24;56.55
11515;BME280;5814;41.936;25.556;2023-02-12T09:38:29;100365.84;;;7.48;55.62
11515;BME280;5814;41.936;25.556;2023-02-12T09:41:11;100360.38;;;7.81;54.87
11515;BME280;5814;41.936;25.556;2023-02-12T09:43:46;100367.42;;;8.17;54.11
11515;BME280;5814;41.936;25.556;2023-02-12T09:46:31;100365.80;;;8.63;53.74
11515;BME280;5814;41.936;25.556;2023-02-12T09:49:06;100361.46;;;8.50;52.43
11515;BME280;5814;41.936;25.556;2023-02-12T09:51:29;100358.78;;;8.35;53.13
11515;BME280;5814;41.936;25.556;2023-02-12T09:54:02;100365.38;;;8.89;52.42
11515;BME280;5814;41.936;25.556;2023-02-12T09:56:28;100361.91;;;8.93;51.30
11515;BME280;5814;41.936;25.556;2023-02-12T09:58:58;100365.35;;;8.46;52.06
11515;BME280;5814;41.936;25.556;2023-02-12T10:01:23;100356.11;;;8.03;52.80
11515;BME280;5814;41.936;25.556;2023-02-12T10:03:50;100357.41;;;8.06;53.01
11515;BME280;5814;41.936;25.556;2023-02-12T10:06:24;100359.99;;;7.93;53.46
11515;BME280;5814;41.936;25.556;2023-02-12T10:08:53;100361.70;;;7.89;53.35
11515;BME280;5814;41.936;25.556;2023-02-12T10:11:24;100357.77;;;7.79;53.48
11515;BME280;5814;41.936;25.556;2023-02-12T10:14:02;100370.75;;;7.79;53.77
11515;BME280;5814;41.936;25.556;2023-02-12T10:16:50;100363.34;;;7.70;54.20
11515;BME280;5814;41.936;25.556;2023-02-12T10:19:23;100353.91;;;7.92;53.96
11515;BME280;5814;41.936;25.556;2023-02-12T10:21:54;100355.70;;;8.08;53.79
11515;BME280;5814;41.936;25.556;2023-02-12T10:24:26;100356.61;;;8.21;53.60
11515;BME280;5814;41.936;25.556;2023-02-12T10:26:51;100358.73;;;8.07;53.43
11515;BME280;5814;41.936;25.556;2023-02-12T10:29:21;100366.36;;;7.68;54.05
11515;BME280;5814;41.936;25.556;2023-02-12T10:32:12;100359.78;;;7.47;54.36
11515;BME280;5814;41.936;25.556;2023-02-12T10:34:36;100361.58;;;7.63;54.61
11515;BME280;5814;41.936;25.556;2023-02-12T10:37:13;100356.91;;;7.81;54.21
11515;BME280;5814;41.936;25.556;2023-02-12T10:39:40;100338.75;;;7.92;54.10
11515;BME280;5814;41.936;25.556;2023-02-12T10:42:09;100347.89;;;8.00;53.84
11515;BME280;5814;41.936;25.556;2023-02-12T10:44:34;100340.09;;;8.14;53.76
11515;BME280;5814;41.936;25.556;2023-02-12T10:47:02;100347.03;;;8.11;53.18
11515;BME280;5814;41.936;25.556;2023-02-12T10:49:29;100342.23;;;8.04;52.84
11515;BME280;5814;41.936;25.556;2023-02-12T10:51:58;100345.36;;;8.28;53.26
11515;BME280;5814;41.936;25.556;2023-02-12T10:54:34;100347.55;;;8.40;52.74
11515;BME280;5814;41.936;25.556;2023-02-12T10:57:17;100344.97;;;8.49;51.80
11515;BME280;5814;41.936;25.556;2023-02-12T10:59:43;100345.84;;;8.80;50.43
11515;BME280;5814;41.936;25.556;2023-02-12T11:02:20;100341.46;;;9.31;48.85
11515;BME280;5814;41.936;25.556;2023-02-12T11:04:46;100345.31;;;9.41;48.64
11515;BME280;5814;41.936;25.556;2023-02-12T11:07:13;100340.09;;;9.51;47.94
11515;BME280;5814;41.936;25.556;2023-02-12T11:09:42;100331.44;;;9.42;47.14
11515;BME280;5814;41.936;25.556;2023-02-12T11:12:35;100351.02;;;9.22;46.60
11515;BME280;5814;41.936;25.556;2023-02-12T11:15:05;100355.80;;;9.00;45.68
11515;BME280;5814;41.936;25.556;2023-02-12T11:17:32;100358.84;;;8.86;46.50
11515;BME280;5814;41.936;25.556;2023-02-12T11:20:03;100365.36;;;8.71;47.46
11515;BME280;5814;41.936;25.556;2023-02-12T11:22:28;100360.16;;;8.70;48.55
11515;BME280;5814;41.936;25.556;2023-02-12T11:25:00;100366.66;;;8.63;49.12
11515;BME280;5814;41.936;25.556;2023-02-12T11:27:27;100357.55;;;8.69;49.26
11515;BME280;5814;41.936;25.556;2023-02-12T11:30:17;100365.81;;;8.72;49.50
11515;BME280;5814;41.936;25.556;2023-02-12T11:32:45;100363.52;;;8.18;49.68
11515;BME280;5814;41.936;25.556;2023-02-12T11:35:14;100359.99;;;8.02;49.84
11515;BME280;5814;41.936;25.556;2023-02-12T11:37:41;100363.09;;;8.25;50.05
11515;BME280;5814;41.936;25.556;2023-02-12T11:40:44;100366.15;;;8.38;49.94
11515;BME280;5814;41.936;25.556;2023-02-12T11:42:53;100363.19;;;8.53;49.51
11515;BME280;5814;41.936;25.556;2023-02-12T11:45:19;100362.26;;;8.37;49.59
11515;BME280;5814;41.936;25.556;2023-02-12T11:47:46;100359.30;;;8.62;49.69
11515;BME280;5814;41.936;25.556;2023-02-12T11:50:34;100362.75;;;8.49;49.61
11515;BME280;5814;41.936;25.556;2023-02-12T11:53:03;100358.86;;;8.66;49.17
11515;BME280;5814;41.936;25.556;2023-02-12T11:55:29;100365.80;;;8.57;49.03
11515;BME280;5814;41.936;25.556;2023-02-12T11:58:13;100357.12;;;8.70;49.06
11515;BME280;5814;41.936;25.556;2023-02-12T12:00:32;100367.55;;;8.67;49.67
11515;BME280;5814;41.936;25.556;2023-02-12T12:03:03;100361.89;;;8.73;49.96
11515;BME280;5814;41.936;25.556;2023-02-12T12:05:33;100367.55;;;8.69;49.48
11515;BME280;5814;41.936;25.556;2023-02-12T12:07:57;100369.70;;;8.70;49.57
11515;BME280;5814;41.936;25.556;2023-02-12T12:10:33;100364.50;;;8.78;49.42
11515;BME280;5814;41.936;25.556;2023-02-12T12:12:58;100373.59;;;8.67;49.08
11515;BME280;5814;41.936;25.556;2023-02-12T12:15:27;100381.29;;;8.26;49.60
11515;BME280;5814;41.936;25.556;2023-02-12T12:20:51;100387.48;;;8.62;49.05
11515;BME280;5814;41.936;25.556;2023-02-12T12:23:20;100360.50;;;8.25;49.30
11515;BME280;5814;41.936;25.556;2023-02-12T12:25:49;100363.60;;;8.41;49.03
11515;BME280;5814;41.936;25.556;2023-02-12T12:28:35;100380.52;;;8.59;48.18
11515;BME280;5814;41.936;25.556;2023-02-12T12:31:09;100376.63;;;8.61;47.89
11515;BME280;5814;41.936;25.556;2023-02-12T12:33:48;100380.95;;;8.49;48.49
11515;BME280;5814;41.936;25.556;2023-02-12T12:36:24;100384.02;;;8.72;48.16
11515;BME280;5814;41.936;25.556;2023-02-12T12:38:56;100384.00;;;8.76;48.49
11515;BME280;5814;41.936;25.556;2023-02-12T12:50:20;100396.90;;;8.22;49.70
11515;BME280;5814;41.936;25.556;2023-02-12T12:52:55;100407.41;;;8.63;49.52
11515;BME280;5814;41.936;25.556;2023-02-12T13:04:04;100411.16;;;8.14;49.81
11515;BME280;5814;41.936;25.556;2023-02-12T13:06:40;100420.29;;;8.17;49.96
11515;BME280;5814;41.936;25.556;2023-02-12T13:09:46;100420.71;;;8.21;49.92
11515;BME280;5814;41.936;25.556;2023-02-12T13:12:04;100429.00;;;8.34;49.95
11515;BME280;5814;41.936;25.556;2023-02-12T13:17:04;100427.80;;;8.71;49.80
11515;BME280;5814;41.936;25.556;2023-02-12T13:22:28;100440.27;;;8.35;49.86
11515;BME280;5814;41.936;25.556;2023-02-12T13:25:00;100429.50;;;8.40;49.70
11515;BME280;5814;41.936;25.556;2023-02-12T13:27:25;100446.00;;;8.56;49.78
11515;BME280;5814;41.936;25.556;2023-02-12T13:29:53;100442.11;;;8.57;49.77
11515;BME280;5814;41.936;25.556;2023-02-12T13:32:29;100446.45;;;8.62;49.64
11515;BME280;5814;41.936;25.556;2023-02-12T13:34:56;100449.00;;;8.47;49.78
11515;BME280;5814;41.936;25.556;2023-02-12T13:37:42;100456.38;;;8.49;49.76
11515;BME280;5814;41.936;25.556;2023-02-12T13:40:16;100443.78;;;8.45;49.93
11515;BME280;5814;41.936;25.556;2023-02-12T13:43:04;100466.34;;;8.47;49.95
11515;BME280;5814;41.936;25.556;2023-02-12T13:45:40;100456.80;;;8.47;49.87
11515;BME280;5814;41.936;25.556;2023-02-12T13:50:44;100465.09;;;8.58;49.68
11515;BME280;5814;41.936;25.556;2023-02-12T13:53:25;100468.56;;;8.68;49.35
11515;BME280;5814;41.936;25.556;2023-02-12T13:55:56;100465.53;;;8.62;49.56